Details for Ryanair at GMFF




Go Back


Latest METAR
Local Time

GMFF 212330Z 27005KT CAVOK 19/16 Q1019 NOSIG

21/06/2018, 23:40:45

Description
Results
Ryanair Logo
Number of Pilots based at GMFF
0 Pilots Based here
Number of Ryanair Flights Departed from GMFF
0 Flights Departed
Number of Ryanair Flights Arrived at GMFF
0 Flights Arrived
Number of Ryanair Schedules Departing from GMFF
19 Schedules
Number of Ryanair Schedules Arriving at GMFF
19 Schedules
Number of Ryanair Schedules Departing from GMFF availible today
4 Schedules Today
Number of Ryanair Schedules Arriving at GMFF availible today
4 Schedules Today
Average Landing Rate at GMFF
-201 fpm
Ryanair Average Landing Rate at GMFF
0 fpm
Total Fuel Purchased at GMFF by Ryanair
0.00 kgs / 0.00 lbs

Pilots Based at GMFF


Pilot ID
Pilot Name
Pilot Rank
No. of Flights
No. of Flying Hours
There are no pilots assigned to this hub!   Will you be the first?
Content